Augusta, ME

3:50 PM EDT on April 28, 2015 (GMT -0400)
Cushnoc,Road | | Change Station
CLOSE
Current Station
Personal Weather Station
Location: Vassalboro, ME
Elevation: 150 ft
Nearby Weather Stations

Elev 150 ft 44.39 °N, 69.72 °W | Updated 23 seconds ago

Overcast
Overcast
56.8 °F
Feels Like 56.8 °F
N
10.0
Wind Variable Wind from North
Gusts 21.0 mph

Today
High -- | Low -- °F
--% Chance of Precip.
Yesterday
High -- | Low -- °F
Precip. -- in
5:34 AM 7:39 PM
Waxing Gibbous, 76% visible
Pressure 29.64 in
Visibility 10.0 miles
Clouds Mostly Cloudy 4800 ft
Dew Point 38 °F
Humidity 49%
Rainfall 0.00 in
Snow Depth Not available.
UV 4 out of 12
Pollen 9.70 out of 12
Air Quality Not available.
Flu Activity Regional
METAR KAUG 281853Z AUTO 34020G25KT 10SM BKN048 13/01 A2963 RMK AO2 PK WND 36032/1754 SLP035 T01280011

More Conditions Fewer Conditions

Pressure 29.64 in
Visibility 10.0 miles
Clouds Mostly Cloudy 4800 ft
Dew Point 38 °F
Humidity 49%
Rainfall 0.00 in
Snow Depth Not available.
UV 4 out of 12
Pollen 9.70 out of 12
Air Quality Not available.
Flu Activity Regional
METAR KAUG 281853Z AUTO 34020G25KT 10SM BKN048 13/01 A2963 RMK AO2 PK WND 36032/1754 SLP035 T01280011

More Conditions Fewer Conditions

10-Day Weather Forecast

Almanac

Astronomy

Apr. 28, 2015 Rise Set
Actual Time
Civil Twilight
Nautical Twilight
Astronomical Twilight
Moon
Length of Visible Light
Length of Day
Tomorrow will be .
, % of the Moon is Illuminated

Today's Extremes

State Highs State Lows

Community

WunderPhotos

Upload Photos

1,817,741 photos uploaded!

WunderBlogs® & News

Nearby

Air Quality

  Air Quality AQ Index Pollutant
Not available.

Snow Depth

Station Depth Elevation

Earthquake Activity

City Distance Mag. Time & Date
Minimum magnitude displayed is 2.5.

Coastal Water Temperatures

Place Temperature

Stations

Nearby Weather Stations

Station Location Temp. Windchill Dew Point Humidity Wind Precip. Elev Updated Type